createdAt,value
2023-03-21T00:00:46.197Z,99462.44
2023-03-21T00:03:13.254Z,99468.38
2023-03-21T00:05:45.771Z,99466.53
2023-03-21T00:08:12.817Z,99462.91
2023-03-21T00:10:43.642Z,99465.38
2023-03-21T00:13:28.359Z,99464.47
2023-03-21T00:16:07.340Z,99463.47
2023-03-21T00:18:46.598Z,99467.53
2023-03-21T00:21:40.969Z,99465.72
2023-03-21T00:24:02.492Z,99456.22
2023-03-21T00:26:29.627Z,99457.03
2023-03-21T00:28:56.613Z,99457.84
2023-03-21T00:31:23.688Z,99452.75
2023-03-21T00:33:50.809Z,99450.13
2023-03-21T00:36:17.844Z,99450.91
2023-03-21T00:38:44.900Z,99446.63
2023-03-21T00:41:25.974Z,99442.56
2023-03-21T00:43:58.694Z,99439.22
2023-03-21T00:46:39.872Z,99438.84
2023-03-21T00:49:09.749Z,99431.81
2023-03-21T00:51:36.819Z,99426.97
2023-03-21T00:54:05.915Z,99416.19
2023-03-21T00:56:32.999Z,99413.72
2023-03-21T00:59:00.031Z,99417.34
2023-03-21T01:01:31.950Z,99417.38
2023-03-21T01:04:04.717Z,99416.63
2023-03-21T01:06:32.797Z,99409.78
2023-03-21T01:08:59.952Z,99408.19
2023-03-21T01:11:28.507Z,99414.31
2023-03-21T01:14:07.343Z,99409.28
2023-03-21T01:16:38.240Z,99410.22
2023-03-21T01:19:15.045Z,99407.03
2023-03-21T01:21:49.339Z,99397.72
2023-03-21T01:24:16.308Z,99404.75
2023-03-21T01:26:43.362Z,99395.34
2023-03-21T01:29:10.407Z,99390.06
2023-03-21T01:31:37.671Z,99389.41
2023-03-21T01:34:06.767Z,99387.78
2023-03-21T01:36:33.839Z,99380.94
2023-03-21T01:39:06.701Z,99376.81
2023-03-21T01:41:45.683Z,99382.00
2023-03-21T01:44:19.067Z,99377.72
2023-03-21T01:47:03.969Z,99376.03
2023-03-21T01:49:46.891Z,99383.69
2023-03-21T01:52:38.731Z,99385.34
2023-03-21T01:55:13.385Z,99380.00
2023-03-21T01:58:02.348Z,99377.22
2023-03-21T02:00:33.999Z,99381.38
2023-03-21T02:03:26.280Z,99374.25
2023-03-21T02:06:12.741Z,99374.59
2023-03-21T02:08:42.572Z,99378.59
2023-03-21T02:11:13.805Z,99377.56
2023-03-21T02:13:43.500Z,99374.81
2023-03-21T02:16:47.618Z,99372.91
2023-03-21T02:19:32.013Z,99370.25
2023-03-21T02:22:20.764Z,99372.81
2023-03-21T02:24:54.602Z,99373.53
2023-03-21T02:27:26.607Z,99367.50
2023-03-21T02:30:26.546Z,99364.94
2023-03-21T02:33:14.578Z,99359.03
2023-03-21T02:35:54.451Z,99345.38
2023-03-21T02:38:31.394Z,99346.09
2023-03-21T02:41:19.607Z,99346.97
2023-03-21T02:43:54.499Z,99349.56
2023-03-21T02:46:33.208Z,99348.84
2023-03-21T02:49:33.540Z,99347.38
2023-03-21T02:52:12.172Z,99341.75
2023-03-21T02:54:47.878Z,99339.47
2023-03-21T02:57:18.547Z,99341.13
2023-03-21T02:59:54.603Z,99329.16
2023-03-21T03:02:31.030Z,99329.00
2023-03-21T03:04:58.813Z,99336.56
2023-03-21T03:07:52.397Z,99329.88
2023-03-21T03:10:25.527Z,99329.34
2023-03-21T03:13:02.819Z,99326.19
2023-03-21T03:15:36.324Z,99332.34
2023-03-21T03:18:15.487Z,99327.28
2023-03-21T03:21:19.264Z,99324.53
2023-03-21T03:23:55.737Z,99325.19
2023-03-21T03:26:37.264Z,99321.59
2023-03-21T03:29:09.007Z,99319.69
2023-03-21T03:32:05.579Z,99320.19
2023-03-21T03:34:39.632Z,99325.00
2023-03-21T03:37:11.472Z,99321.53
2023-03-21T03:39:41.915Z,99317.09
2023-03-21T03:42:27.222Z,99303.41
2023-03-21T03:45:02.344Z,99308.59
2023-03-21T03:47:47.685Z,99309.53
2023-03-21T03:50:49.732Z,99316.25
2023-03-21T03:53:22.335Z,99312.00
2023-03-21T03:55:51.995Z,99306.25
2023-03-21T03:58:23.906Z,99301.16
2023-03-21T04:00:57.143Z,99289.31
2023-03-21T04:03:24.279Z,99290.13
2023-03-21T04:05:52.195Z,99295.13
2023-03-21T04:08:19.319Z,99297.59
2023-03-21T04:10:52.117Z,99295.78
2023-03-21T04:13:19.912Z,99298.31
2023-03-21T04:16:09.235Z,99296.69
2023-03-21T04:18:36.412Z,99296.16
2023-03-21T04:21:07.691Z,99298.91
2023-03-21T04:23:35.879Z,99302.56
2023-03-21T04:26:04.140Z,99307.00
2023-03-21T04:28:38.085Z,99309.59
2023-03-21T04:31:31.174Z,99312.19
2023-03-21T04:34:12.649Z,99308.75
2023-03-21T04:36:47.411Z,99306.94
2023-03-21T04:39:15.369Z,99302.47
2023-03-21T04:41:45.755Z,99303.16
2023-03-21T04:44:13.713Z,99307.28
2023-03-21T04:46:41.110Z,99311.53
2023-03-21T04:49:09.231Z,99302.16
2023-03-21T04:51:36.477Z,99300.50
2023-03-21T04:56:36.157Z,99298.28
2023-03-21T04:59:07.703Z,99296.63
2023-03-21T05:01:34.656Z,99296.78
2023-03-21T05:04:03.768Z,99298.53
2023-03-21T05:06:33.258Z,99296.81
2023-03-21T05:09:04.181Z,99294.13
2023-03-21T05:11:33.019Z,99288.97
2023-03-21T05:13:59.946Z,99284.69
2023-03-21T05:16:30.896Z,99283.78
2023-03-21T05:19:03.977Z,99282.09
2023-03-21T05:21:41.542Z,99281.28
2023-03-21T05:24:17.626Z,99276.13
2023-03-21T05:26:45.003Z,99285.50
2023-03-21T05:29:16.111Z,99281.28
2023-03-21T05:31:45.893Z,99273.91
2023-03-21T05:34:14.981Z,99269.91
2023-03-21T05:36:42.582Z,99275.19
2023-03-21T05:39:10.989Z,99270.00
2023-03-21T05:41:43.030Z,99271.16
2023-03-21T05:44:10.317Z,99276.56
2023-03-21T05:46:38.666Z,99273.13
2023-03-21T05:49:06.508Z,99271.38
2023-03-21T05:51:33.823Z,99273.84
2023-03-21T05:54:00.861Z,99272.13
2023-03-21T05:56:27.818Z,99273.84
2023-03-21T05:58:59.327Z,99273.84
2023-03-21T06:01:27.249Z,99268.75
2023-03-21T06:04:05.407Z,99270.56
2023-03-21T06:06:33.602Z,99273.31
2023-03-21T06:09:01.612Z,99273.44
2023-03-21T06:11:31.473Z,99259.94
2023-03-21T06:14:18.936Z,99264.31
2023-03-21T06:16:54.042Z,99263.56
2023-03-21T06:19:22.009Z,99262.03
2023-03-21T06:22:02.005Z,99259.53
2023-03-21T06:24:30.620Z,99259.81
2023-03-21T06:26:57.634Z,99267.78
2023-03-21T06:29:27.970Z,99269.69
2023-03-21T06:31:54.969Z,99268.13
2023-03-21T06:34:22.084Z,99266.47
2023-03-21T06:36:48.960Z,99265.50
2023-03-21T06:39:18.162Z,99256.19
2023-03-21T06:41:46.073Z,99257.22
2023-03-21T06:44:13.085Z,99256.69
2023-03-21T06:46:49.262Z,99257.69
2023-03-21T06:49:19.720Z,99252.88
2023-03-21T06:51:46.894Z,99251.44
2023-03-21T06:54:18.997Z,99250.63
2023-03-21T06:56:58.867Z,99247.06
2023-03-21T06:59:29.459Z,99251.13
2023-03-21T07:02:02.792Z,99255.34
2023-03-21T07:04:31.796Z,99253.56
2023-03-21T07:06:58.801Z,99246.72
2023-03-21T07:09:28.276Z,99244.22
2023-03-21T07:11:59.465Z,99241.50
2023-03-21T07:14:36.368Z,99250.06
2023-03-21T07:17:04.130Z,99254.38
2023-03-21T07:19:31.289Z,99246.78
2023-03-21T07:22:00.368Z,99249.56
2023-03-21T07:24:28.876Z,99244.66
2023-03-21T07:26:56.302Z,99248.13
2023-03-21T07:29:23.360Z,99243.91
2023-03-21T07:31:50.506Z,99244.88
2023-03-21T07:34:18.992Z,99236.31
2023-03-21T07:36:46.264Z,99229.53
2023-03-21T07:39:13.178Z,99229.66
2023-03-21T07:41:40.368Z,99239.19
2023-03-21T07:44:14.808Z,99232.75
2023-03-21T07:46:41.839Z,99223.53
2023-03-21T07:49:09.054Z,99225.22
2023-03-21T07:51:36.128Z,99222.78
2023-03-21T07:54:03.217Z,99222.97
2023-03-21T07:56:30.258Z,99213.75
2023-03-21T07:58:57.306Z,99208.03
2023-03-21T08:01:24.546Z,99213.28
2023-03-21T08:03:53.746Z,99214.41
2023-03-21T08:06:21.084Z,99217.09
2023-03-21T08:08:48.098Z,99220.72
2023-03-21T08:11:15.163Z,99217.41
2023-03-21T08:13:42.289Z,99216.63
2023-03-21T08:16:09.626Z,99220.25
2023-03-21T08:18:36.685Z,99218.72
2023-03-21T08:21:03.974Z,99221.59
2023-03-21T08:23:32.120Z,99225.16
2023-03-21T08:25:59.108Z,99219.25
2023-03-21T08:28:26.200Z,99221.97
2023-03-21T08:30:53.395Z,99225.38
2023-03-21T08:33:20.851Z,99222.06
2023-03-21T08:35:47.833Z,99223.97
2023-03-21T08:38:29.847Z,99225.91
2023-03-21T08:40:59.152Z,99226.94
2023-03-21T08:43:28.027Z,99223.59
2023-03-21T08:45:55.843Z,99220.34
2023-03-21T08:48:22.864Z,99218.75
2023-03-21T08:50:50.077Z,99217.97
2023-03-21T08:53:16.989Z,99215.47
2023-03-21T08:55:44.767Z,99218.09
2023-03-21T08:58:11.643Z,99213.06
2023-03-21T09:00:38.590Z,99217.50
2023-03-21T09:03:05.559Z,99220.97
2023-03-21T09:05:32.523Z,99208.22
2023-03-21T09:08:01.622Z,99206.44
2023-03-21T09:10:28.659Z,99209.13
2023-03-21T09:12:55.838Z,99211.75
2023-03-21T09:15:28.875Z,99214.41
2023-03-21T09:17:58.816Z,99210.19
2023-03-21T09:20:30.912Z,99212.78
2023-03-21T09:22:58.804Z,99221.28
2023-03-21T09:25:29.505Z,99210.16
2023-03-21T09:27:58.275Z,99222.19
2023-03-21T09:30:26.483Z,99217.94
2023-03-21T09:32:55.846Z,99216.22
2023-03-21T09:35:24.357Z,99212.78
2023-03-21T09:37:51.392Z,99213.63
2023-03-21T09:40:30.800Z,99208.47
2023-03-21T09:43:31.134Z,99212.75
2023-03-21T09:46:22.241Z,99208.41
2023-03-21T09:49:01.586Z,99213.59
2023-03-21T09:51:31.716Z,99211.03
2023-03-21T09:54:00.990Z,99215.31
2023-03-21T09:56:28.224Z,99209.22
2023-03-21T09:58:58.692Z,99204.88
2023-03-21T10:01:28.534Z,99201.41
2023-03-21T10:04:01.088Z,99197.13
2023-03-21T10:06:31.871Z,99199.75
2023-03-21T10:09:24.546Z,99198.03
2023-03-21T10:11:57.750Z,99200.63
2023-03-21T10:14:42.200Z,99197.13
2023-03-21T10:17:23.741Z,99200.50
2023-03-21T10:19:56.229Z,99201.44
2023-03-21T10:22:23.245Z,99192.00
2023-03-21T10:24:50.760Z,99191.97
2023-03-21T10:27:17.716Z,99189.41
2023-03-21T10:29:44.913Z,99191.19
2023-03-21T10:32:15.927Z,99186.91
2023-03-21T10:37:24.197Z,99177.47
2023-03-21T10:39:52.588Z,99187.84
2023-03-21T10:42:27.160Z,99186.97
2023-03-21T10:44:55.213Z,99181.00
2023-03-21T10:47:31.326Z,99177.66
2023-03-21T10:50:12.347Z,99179.38
2023-03-21T10:52:50.612Z,99182.84
2023-03-21T10:55:25.526Z,99176.84
2023-03-21T10:58:00.208Z,99177.72
2023-03-21T11:00:35.459Z,99173.41
2023-03-21T11:03:03.645Z,99166.50
2023-03-21T11:05:37.060Z,99172.53
2023-03-21T11:08:11.828Z,99176.84
2023-03-21T11:11:06.378Z,99175.13
2023-03-21T11:13:37.360Z,99172.63
2023-03-21T11:16:22.001Z,99170.91
2023-03-21T11:18:52.993Z,99173.47
2023-03-21T11:21:21.694Z,99172.72
2023-03-21T11:23:49.662Z,99161.63
2023-03-21T11:26:24.376Z,99160.78
2023-03-21T11:28:54.141Z,99153.03
2023-03-21T11:31:21.474Z,99150.47
2023-03-21T11:33:57.133Z,99150.47
2023-03-21T11:36:24.220Z,99146.13
2023-03-21T11:38:52.981Z,99140.13
2023-03-21T11:41:24.528Z,99141.03
2023-03-21T11:43:52.069Z,99143.63
2023-03-21T11:46:26.902Z,99145.41
2023-03-21T11:48:54.254Z,99140.22
2023-03-21T11:51:29.810Z,99145.38
2023-03-21T11:54:19.622Z,99140.19
2023-03-21T11:56:54.247Z,99135.03
2023-03-21T11:59:34.270Z,99132.47
2023-03-21T12:02:16.612Z,99130.72
2023-03-21T12:05:01.249Z,99132.44
2023-03-21T12:07:38.564Z,99117.81
2023-03-21T12:10:23.468Z,99113.50
2023-03-21T12:12:50.449Z,99115.25
2023-03-21T12:15:34.201Z,99116.13
2023-03-21T12:18:14.728Z,99123.00
2023-03-21T12:20:47.721Z,99118.72
2023-03-21T12:23:36.333Z,99111.84
2023-03-21T12:26:03.296Z,99114.44
2023-03-21T12:28:49.578Z,99109.31
2023-03-21T12:31:27.779Z,99108.41
2023-03-21T12:34:16.345Z,99109.25
2023-03-21T12:36:55.402Z,99108.38
2023-03-21T12:39:28.099Z,99101.47
2023-03-21T12:42:21.028Z,99091.06
2023-03-21T12:45:06.053Z,99090.22
2023-03-21T12:47:33.257Z,99080.81
2023-03-21T12:50:05.340Z,99087.75
2023-03-21T12:52:37.491Z,99093.78
2023-03-21T12:55:23.884Z,99085.16
2023-03-21T12:57:57.849Z,99078.22
2023-03-21T13:00:31.023Z,99077.38
2023-03-21T13:03:20.956Z,99074.81
2023-03-21T13:05:59.595Z,99078.25
2023-03-21T13:08:55.119Z,99068.75
2023-03-21T13:11:26.491Z,99069.53
2023-03-21T13:14:00.707Z,99066.06
2023-03-21T13:16:31.468Z,99072.97
2023-03-21T13:19:17.301Z,99064.34
2023-03-21T13:21:44.310Z,99072.97
2023-03-21T13:24:26.286Z,99063.53
2023-03-21T13:27:07.243Z,99060.16
2023-03-21T13:29:41.883Z,99061.84
2023-03-21T13:32:30.947Z,99060.16
2023-03-21T13:35:04.511Z,99060.16
2023-03-21T13:37:33.739Z,99058.44
2023-03-21T13:40:15.054Z,99055.88
2023-03-21T13:42:44.367Z,99061.06
2023-03-21T13:45:12.325Z,99053.28
2023-03-21T13:47:43.185Z,99055.03
2023-03-21T13:50:23.475Z,99053.28
2023-03-21T13:53:02.425Z,99061.94
2023-03-21T13:55:46.326Z,99062.81
2023-03-21T13:58:37.251Z,99054.22
2023-03-21T14:01:35.697Z,99053.38
2023-03-21T14:04:20.175Z,99051.66
2023-03-21T14:06:55.451Z,99049.09
2023-03-21T14:09:30.509Z,99040.50
2023-03-21T14:12:03.947Z,99038.78
2023-03-21T14:14:46.549Z,99031.06
2023-03-21T14:17:30.456Z,99033.63
2023-03-21T14:20:01.099Z,99036.19
2023-03-21T14:22:29.160Z,99040.47
2023-03-21T14:25:00.275Z,99036.19
2023-03-21T14:27:32.094Z,99032.72
2023-03-21T14:29:59.383Z,99035.31
2023-03-21T14:32:27.000Z,99037.03
2023-03-21T14:34:54.993Z,99030.09
2023-03-21T14:37:28.859Z,99035.25
2023-03-21T14:40:09.123Z,99036.06
2023-03-21T14:42:36.616Z,99035.19
2023-03-21T14:45:37.070Z,99035.16
2023-03-21T14:48:06.516Z,99023.13
2023-03-21T14:50:42.570Z,99028.22
2023-03-21T14:53:21.464Z,99028.19
2023-03-21T14:55:52.386Z,99024.72
2023-03-21T14:58:19.744Z,99033.28
2023-03-21T15:00:53.137Z,99024.66
2023-03-21T15:03:21.164Z,99025.47
2023-03-21T15:05:48.192Z,99029.69
2023-03-21T15:08:16.085Z,99036.53
2023-03-21T15:10:43.264Z,99035.66
2023-03-21T15:13:20.400Z,99030.47
2023-03-21T15:15:47.512Z,99031.28
2023-03-21T15:18:20.944Z,99037.22
2023-03-21T15:20:48.371Z,99040.50
2023-03-21T15:23:25.911Z,99042.09
2023-03-21T15:25:52.931Z,99042.06
2023-03-21T15:28:19.865Z,99050.66
2023-03-21T15:30:48.967Z,99045.50
2023-03-21T15:33:16.088Z,99047.19
2023-03-21T15:35:46.203Z,99044.56
2023-03-21T15:38:30.563Z,99053.91
2023-03-21T15:41:16.978Z,99048.69
2023-03-21T15:43:43.958Z,99040.81
2023-03-21T15:46:18.883Z,99048.38
2023-03-21T15:48:45.957Z,99051.63
2023-03-21T15:51:22.867Z,99054.09
2023-03-21T15:53:51.932Z,99052.16
2023-03-21T15:56:21.616Z,99046.03
2023-03-21T15:58:49.013Z,99038.28
2023-03-21T16:01:20.374Z,99032.28
2023-03-21T16:04:11.109Z,99034.84
2023-03-21T16:06:39.634Z,99038.22
2023-03-21T16:09:14.347Z,99049.28
2023-03-21T16:11:52.338Z,99049.97
2023-03-21T16:14:20.258Z,99049.78
2023-03-21T16:16:47.728Z,99047.19
2023-03-21T16:19:15.025Z,99044.63
2023-03-21T16:21:42.301Z,99048.06
2023-03-21T16:24:11.663Z,99052.41
2023-03-21T16:26:43.688Z,99043.78
2023-03-21T16:29:12.111Z,99054.88
2023-03-21T16:31:39.237Z,99050.44
2023-03-21T16:34:07.130Z,99060.69
2023-03-21T16:36:37.275Z,99059.06
2023-03-21T16:39:26.394Z,99065.13
2023-03-21T16:41:53.496Z,99066.81
2023-03-21T16:44:20.456Z,99059.13
2023-03-21T16:46:47.618Z,99062.50
2023-03-21T16:49:23.895Z,99059.94
2023-03-21T16:51:50.954Z,99058.19
2023-03-21T16:54:17.916Z,99053.00
2023-03-21T16:56:50.669Z,99058.13
2023-03-21T16:59:17.715Z,99052.97
2023-03-21T17:01:46.326Z,99058.13
2023-03-21T17:04:13.529Z,99056.41
2023-03-21T17:06:45.664Z,99058.97
2023-03-21T17:09:13.762Z,99053.78
2023-03-21T17:11:41.743Z,99059.72
2023-03-21T17:14:09.662Z,99069.88
2023-03-21T17:16:36.697Z,99064.69
2023-03-21T17:19:07.147Z,99069.81
2023-03-21T17:21:34.128Z,99062.06
2023-03-21T17:24:01.112Z,99070.59
2023-03-21T17:26:28.713Z,99067.19
2023-03-21T17:28:59.961Z,99067.19
2023-03-21T17:31:27.834Z,99070.69
2023-03-21T17:33:55.056Z,99076.72
2023-03-21T17:36:36.085Z,99069.91
2023-03-21T17:39:04.587Z,99071.66
2023-03-21T17:41:31.505Z,99067.41
2023-03-21T17:43:58.526Z,99075.19
2023-03-21T17:46:27.263Z,99072.63
2023-03-21T17:48:54.195Z,99074.34
2023-03-21T17:51:23.120Z,99075.25
2023-03-21T17:53:51.192Z,99074.41
2023-03-21T17:56:40.061Z,99076.13
2023-03-21T17:59:08.081Z,99066.75
2023-03-21T18:01:35.598Z,99076.97
2023-03-21T18:04:04.996Z,99070.13
2023-03-21T18:06:33.809Z,99070.94
2023-03-21T18:09:00.902Z,99072.63
2023-03-21T18:11:28.193Z,99070.84
2023-03-21T18:14:06.779Z,99082.81
2023-03-21T18:16:42.335Z,99066.47
2023-03-21T18:19:10.963Z,99074.16
2023-03-21T18:21:40.661Z,99069.91
2023-03-21T18:24:07.783Z,99076.72
2023-03-21T18:26:34.804Z,99075.09
2023-03-21T18:32:04.400Z,99069.19
2023-03-21T18:34:32.831Z,99073.38
2023-03-21T18:36:59.785Z,99069.09
2023-03-21T18:39:29.384Z,99072.56
2023-03-21T18:42:00.875Z,99070.03
2023-03-21T18:44:30.022Z,99070.91
2023-03-21T18:46:57.585Z,99069.22
2023-03-21T18:50:05.905Z,99070.16
2023-03-21T18:52:12.299Z,99064.19
2023-03-21T18:54:39.627Z,99066.81
2023-03-21T18:57:34.647Z,99065.97
2023-03-21T18:59:54.161Z,99059.97
2023-03-21T19:02:21.390Z,99068.53
2023-03-21T19:04:48.618Z,99063.47
2023-03-21T19:07:15.726Z,99061.78
2023-03-21T19:10:05.233Z,99066.06
2023-03-21T19:12:30.477Z,99069.53
2023-03-21T19:14:57.559Z,99073.91
2023-03-21T19:18:15.706Z,99069.75
2023-03-21T19:20:13.970Z,99072.31
2023-03-21T19:22:41.424Z,99077.44
2023-03-21T19:25:09.311Z,99074.09
2023-03-21T19:27:37.153Z,99081.88
2023-03-21T19:30:14.424Z,99084.56
2023-03-21T19:32:43.651Z,99086.31
2023-03-21T19:35:10.718Z,99087.19
2023-03-21T19:37:37.694Z,99087.22
2023-03-21T19:40:06.024Z,99079.56
2023-03-21T19:42:33.703Z,99079.59
2023-03-21T19:45:01.210Z,99081.41
2023-03-21T19:47:28.617Z,99084.91
2023-03-21T19:52:46.293Z,99078.91
2023-03-21T19:55:14.975Z,99076.34
2023-03-21T19:57:55.252Z,99070.41
2023-03-21T20:00:25.409Z,99072.06
2023-03-21T20:02:52.562Z,99076.38
2023-03-21T20:05:25.423Z,99079.88
2023-03-21T20:07:57.277Z,99073.06
2023-03-21T20:10:27.572Z,99083.38
2023-03-21T20:12:55.153Z,99075.63
2023-03-21T20:15:24.911Z,99086.78
2023-03-21T20:17:54.043Z,99082.44
2023-03-21T20:20:21.373Z,99086.75
2023-03-21T20:25:43.167Z,99083.38
2023-03-21T20:28:17.232Z,99092.75
2023-03-21T20:30:56.841Z,99082.44
2023-03-21T20:33:24.478Z,99088.47
2023-03-21T20:38:43.365Z,99096.13
2023-03-21T20:41:10.339Z,99093.59
2023-03-21T20:44:24.455Z,99094.44
2023-03-21T20:46:24.413Z,99092.72
2023-03-21T20:48:51.435Z,99096.16
2023-03-21T20:54:05.633Z,99104.66
2023-03-21T20:56:32.910Z,99103.75
2023-03-21T20:59:15.327Z,99113.09
2023-03-21T21:01:45.419Z,99113.84
2023-03-21T21:04:15.052Z,99110.28
2023-03-21T21:06:42.242Z,99116.19
2023-03-21T21:09:09.380Z,99108.44
2023-03-21T21:14:23.408Z,99111.78
2023-03-21T21:16:51.576Z,99116.94
2023-03-21T21:19:21.807Z,99110.03
2023-03-21T21:21:49.872Z,99120.22
2023-03-21T21:24:16.843Z,99122.72
2023-03-21T21:26:46.458Z,99124.44
2023-03-21T21:29:17.203Z,99117.56
2023-03-21T21:31:47.113Z,99123.59
2023-03-21T21:34:15.769Z,99126.03
2023-03-21T21:36:44.950Z,99124.22
2023-03-21T21:39:15.960Z,99122.38
2023-03-21T21:41:43.221Z,99122.38
2023-03-21T21:44:11.050Z,99120.66
2023-03-21T21:46:38.721Z,99126.66
2023-03-21T21:49:05.642Z,99130.03
2023-03-21T21:51:34.153Z,99135.94
2023-03-21T21:54:03.914Z,99132.53
2023-03-21T21:56:38.487Z,99137.59
2023-03-21T21:59:05.603Z,99138.50
2023-03-21T22:01:38.619Z,99136.81
2023-03-21T22:04:10.850Z,99142.84
2023-03-21T22:06:37.823Z,99145.44
2023-03-21T22:09:07.044Z,99146.22
2023-03-21T22:11:34.191Z,99146.13
2023-03-21T22:14:01.157Z,99142.63
2023-03-21T22:16:28.265Z,99147.75
2023-03-21T22:18:55.336Z,99157.19
2023-03-21T22:21:22.255Z,99158.94
2023-03-21T22:23:49.344Z,99161.50
2023-03-21T22:26:16.563Z,99160.63
2023-03-21T22:28:43.800Z,99158.94
2023-03-21T22:31:15.790Z,99167.53
2023-03-21T22:33:45.891Z,99172.56
2023-03-21T22:36:12.834Z,99175.09
2023-03-21T22:38:41.991Z,99177.72
2023-03-21T22:41:09.057Z,99176.72
2023-03-21T22:43:36.102Z,99175.78
2023-03-21T22:46:03.558Z,99182.63
2023-03-21T22:48:30.958Z,99191.16
2023-03-21T22:50:58.664Z,99187.78
2023-03-21T22:53:25.770Z,99185.09
2023-03-21T22:55:52.741Z,99184.16
2023-03-21T22:58:19.784Z,99185.03
2023-03-21T23:00:47.384Z,99185.03
2023-03-21T23:03:16.746Z,99188.44
2023-03-21T23:05:44.085Z,99189.38
2023-03-21T23:08:11.448Z,99187.59
2023-03-21T23:10:39.578Z,99182.47
2023-03-21T23:13:06.707Z,99187.47
2023-03-21T23:15:33.777Z,99193.44
2023-03-21T23:18:00.879Z,99194.34
2023-03-21T23:20:27.964Z,99196.91
2023-03-21T23:22:54.974Z,99192.59
2023-03-21T23:25:24.884Z,99193.50
2023-03-21T23:27:52.037Z,99188.47
2023-03-21T23:30:19.160Z,99183.41
2023-03-21T23:32:46.338Z,99178.34
2023-03-21T23:35:13.589Z,99186.03
2023-03-21T23:37:42.495Z,99192.94
2023-03-21T23:40:10.422Z,99197.91
2023-03-21T23:42:37.425Z,99190.16
2023-03-21T23:45:05.059Z,99193.44
2023-03-21T23:47:32.122Z,99201.13
2023-03-21T23:50:02.212Z,99200.34
2023-03-21T23:52:30.281Z,99203.03
2023-03-21T23:54:57.230Z,99203.03
2023-03-21T23:57:24.209Z,99197.84
2023-03-21T23:59:54.390Z,99201.28
